sensor_id;sensor_type;location;lat;lon;timestamp;pressure;altitude;pressure_sealevel;temperature;humidity
72892;BME280;61032;50.782;6.818;2023-02-11T00:00:40;102432.25;;;7.20;69.27
72892;BME280;61032;50.782;6.818;2023-02-11T00:01:41;102436.31;;;7.18;69.28
72892;BME280;61032;50.782;6.818;2023-02-11T00:02:42;102434.66;;;7.17;69.81
72892;BME280;61032;50.782;6.818;2023-02-11T00:03:42;102436.31;;;7.18;69.86
72892;BME280;61032;50.782;6.818;2023-02-11T00:04:42;102432.19;;;7.15;69.89
72892;BME280;61032;50.782;6.818;2023-02-11T00:05:42;102436.31;;;7.18;69.88
72892;BME280;61032;50.782;6.818;2023-02-11T00:06:43;102428.88;;;7.13;70.20
72892;BME280;61032;50.782;6.818;2023-02-11T00:07:43;102432.75;;;7.17;69.44
72892;BME280;61032;50.782;6.818;2023-02-11T00:08:44;102429.78;;;7.19;69.13
72892;BME280;61032;50.782;6.818;2023-02-11T00:09:44;102430.84;;;7.18;69.24
72892;BME280;61032;50.782;6.818;2023-02-11T00:10:44;102429.19;;;7.17;69.54
72892;BME280;61032;50.782;6.818;2023-02-11T00:11:45;102428.63;;;7.15;69.14
72892;BME280;61032;50.782;6.818;2023-02-11T00:12:45;102423.16;;;7.15;69.35
72892;BME280;61032;50.782;6.818;2023-02-11T00:13:47;102425.59;;;7.11;69.58
72892;BME280;61032;50.782;6.818;2023-02-11T00:14:47;102423.63;;;7.07;69.89
72892;BME280;61032;50.782;6.818;2023-02-11T00:15:48;102425.28;;;7.08;69.58
72892;BME280;61032;50.782;6.818;2023-02-11T00:16:48;102425.56;;;7.06;69.47
72892;BME280;61032;50.782;6.818;2023-02-11T00:17:48;102427.72;;;7.04;69.89
72892;BME280;61032;50.782;6.818;2023-02-11T00:18:49;102424.69;;;7.01;70.00
72892;BME280;61032;50.782;6.818;2023-02-11T00:19:52;102421.94;;;7.01;70.15
72892;BME280;61032;50.782;6.818;2023-02-11T00:20:52;102417.03;;;7.03;69.59
72892;BME280;61032;50.782;6.818;2023-02-11T00:21:52;102422.81;;;7.06;69.59
72892;BME280;61032;50.782;6.818;2023-02-11T00:22:53;102419.78;;;7.03;69.68
72892;BME280;61032;50.782;6.818;2023-02-11T00:23:53;102414.81;;;7.00;69.59
72892;BME280;61032;50.782;6.818;2023-02-11T00:24:56;102411.53;;;6.98;69.42
72892;BME280;61032;50.782;6.818;2023-02-11T00:25:56;102413.69;;;6.96;69.80
72892;BME280;61032;50.782;6.818;2023-02-11T00:26:57;102411.00;;;7.01;69.31
72892;BME280;61032;50.782;6.818;2023-02-11T00:27:57;102406.88;;;6.98;69.68
72892;BME280;61032;50.782;6.818;2023-02-11T00:28:58;102404.97;;;6.99;70.14
72892;BME280;61032;50.782;6.818;2023-02-11T00:29:59;102402.50;;;6.97;69.64
72892;BME280;61032;50.782;6.818;2023-02-11T00:31:01;102401.66;;;6.97;69.85
72892;BME280;61032;50.782;6.818;2023-02-11T00:32:01;102403.00;;;6.94;69.70
72892;BME280;61032;50.782;6.818;2023-02-11T00:33:04;102401.09;;;6.95;69.68
72892;BME280;61032;50.782;6.818;2023-02-11T00:34:04;102399.38;;;6.88;69.67
72892;BME280;61032;50.782;6.818;2023-02-11T00:35:05;102402.66;;;6.85;70.32
72892;BME280;61032;50.782;6.818;2023-02-11T00:36:08;102398.81;;;6.86;70.26
72892;BME280;61032;50.782;6.818;2023-02-11T00:37:08;102399.94;;;6.85;69.83
72892;BME280;61032;50.782;6.818;2023-02-11T00:38:10;102397.13;;;6.80;69.89
72892;BME280;61032;50.782;6.818;2023-02-11T00:39:11;102397.66;;;6.77;70.43
72892;BME280;61032;50.782;6.818;2023-02-11T00:40:12;102401.97;;;6.73;70.42
72892;BME280;61032;50.782;6.818;2023-02-11T00:41:15;102402.47;;;6.70;70.49
72892;BME280;61032;50.782;6.818;2023-02-11T00:42:16;102402.72;;;6.69;70.02
72892;BME280;61032;50.782;6.818;2023-02-11T00:43:16;102404.34;;;6.65;69.88
72892;BME280;61032;50.782;6.818;2023-02-11T00:44:17;102396.66;;;6.62;70.44
72892;BME280;61032;50.782;6.818;2023-02-11T00:45:17;102395.28;;;6.59;70.41
72892;BME280;61032;50.782;6.818;2023-02-11T00:46:20;102386.00;;;6.60;70.69
72892;BME280;61032;50.782;6.818;2023-02-11T00:47:21;102388.66;;;6.55;71.22
72892;BME280;61032;50.782;6.818;2023-02-11T00:48:21;102392.72;;;6.52;70.93
72892;BME280;61032;50.782;6.818;2023-02-11T00:49:21;102382.88;;;6.51;70.90
72892;BME280;61032;50.782;6.818;2023-02-11T00:50:22;102391.59;;;6.48;70.86
72892;BME280;61032;50.782;6.818;2023-02-11T00:51:24;102386.38;;;6.47;70.85
72892;BME280;61032;50.782;6.818;2023-02-11T00:52:24;102388.66;;;6.55;70.76
72892;BME280;61032;50.782;6.818;2023-02-11T00:53:24;102389.75;;;6.54;70.53
72892;BME280;61032;50.782;6.818;2023-02-11T00:54:25;102381.53;;;6.54;71.60
72892;BME280;61032;50.782;6.818;2023-02-11T00:55:25;102382.88;;;6.51;70.94
72892;BME280;61032;50.782;6.818;2023-02-11T00:56:26;102391.91;;;6.52;71.61
72892;BME280;61032;50.782;6.818;2023-02-11T00:57:26;102387.78;;;6.49;70.92
72892;BME280;61032;50.782;6.818;2023-02-11T00:58:27;102385.28;;;6.48;71.48
72892;BME280;61032;50.782;6.818;2023-02-11T00:59:27;102389.09;;;6.47;71.11
72892;BME280;61032;50.782;6.818;2023-02-11T01:00:28;102391.84;;;6.47;71.24
72892;BME280;61032;50.782;6.818;2023-02-11T01:01:28;102385.03;;;6.49;71.22
72892;BME280;61032;50.782;6.818;2023-02-11T01:02:28;102386.38;;;6.47;70.69
72892;BME280;61032;50.782;6.818;2023-02-11T01:03:29;102383.59;;;6.42;70.09
72892;BME280;61032;50.782;6.818;2023-02-11T01:04:29;102378.97;;;6.42;70.22
72892;BME280;61032;50.782;6.818;2023-02-11T01:05:30;102375.66;;;6.40;70.82
72892;BME280;61032;50.782;6.818;2023-02-11T01:06:30;102370.72;;;6.37;70.01
72892;BME280;61032;50.782;6.818;2023-02-11T01:07:30;102378.06;;;6.37;71.08
72892;BME280;61032;50.782;6.818;2023-02-11T01:08:31;102380.16;;;6.30;70.74
72892;BME280;61032;50.782;6.818;2023-02-11T01:09:31;102384.72;;;6.24;71.56
72892;BME280;61032;50.782;6.818;2023-02-11T01:10:32;102378.44;;;6.24;70.92
72892;BME280;61032;50.782;6.818;2023-02-11T01:11:32;102374.91;;;6.23;71.01
72892;BME280;61032;50.782;6.818;2023-02-11T01:12:32;102377.66;;;6.23;70.88
72892;BME280;61032;50.782;6.818;2023-02-11T01:13:34;102379.56;;;6.23;71.14
72892;BME280;61032;50.782;6.818;2023-02-11T01:14:36;102374.63;;;6.25;70.97
72892;BME280;61032;50.782;6.818;2023-02-11T01:15:36;102375.72;;;6.24;71.50
72892;BME280;61032;50.782;6.818;2023-02-11T01:16:36;102381.19;;;6.24;71.46
72892;BME280;61032;50.782;6.818;2023-02-11T01:17:37;102382.78;;;6.19;71.40
72892;BME280;61032;50.782;6.818;2023-02-11T01:18:37;102375.94;;;6.17;71.69
72892;BME280;61032;50.782;6.818;2023-02-11T01:19:38;102387.69;;;6.17;71.83
72892;BME280;61032;50.782;6.818;2023-02-11T01:20:38;102378.41;;;6.18;70.71
72892;BME280;61032;50.782;6.818;2023-02-11T01:21:39;102387.09;;;6.15;70.60
72892;BME280;61032;50.782;6.818;2023-02-11T01:22:39;102381.31;;;6.12;70.23
72892;BME280;61032;50.782;6.818;2023-02-11T01:23:39;102386.78;;;6.12;69.84
72892;BME280;61032;50.782;6.818;2023-02-11T01:24:40;102379.34;;;6.07;70.29
72892;BME280;61032;50.782;6.818;2023-02-11T01:25:40;102382.31;;;6.06;70.92
72892;BME280;61032;50.782;6.818;2023-02-11T01:26:40;102380.91;;;6.03;71.58
72892;BME280;61032;50.782;6.818;2023-02-11T01:27:41;102386.66;;;6.02;70.86
72892;BME280;61032;50.782;6.818;2023-02-11T01:28:41;102385.19;;;5.94;71.25
72892;BME280;61032;50.782;6.818;2023-02-11T01:29:41;102380.38;;;6.01;71.19
72892;BME280;61032;50.782;6.818;2023-02-11T01:30:42;102379.00;;;6.04;71.38
72892;BME280;61032;50.782;6.818;2023-02-11T01:31:42;102389.50;;;6.12;71.33
72892;BME280;61032;50.782;6.818;2023-02-11T01:32:42;102388.56;;;6.01;71.53
72892;BME280;61032;50.782;6.818;2023-02-11T01:33:42;102386.25;;;5.93;70.55
72892;BME280;61032;50.782;6.818;2023-02-11T01:34:43;102387.72;;;5.84;71.99
72892;BME280;61032;50.782;6.818;2023-02-11T01:35:43;102390.97;;;5.81;72.20
72892;BME280;61032;50.782;6.818;2023-02-11T01:36:44;102389.00;;;5.76;72.23
72892;BME280;61032;50.782;6.818;2023-02-11T01:37:44;102390.06;;;5.75;72.18
72892;BME280;61032;50.782;6.818;2023-02-11T01:38:44;102393.47;;;5.66;72.17
72892;BME280;61032;50.782;6.818;2023-02-11T01:39:44;102394.38;;;5.71;71.98
72892;BME280;61032;50.782;6.818;2023-02-11T01:40:56;102390.81;;;5.71;72.59
72892;BME280;61032;50.782;6.818;2023-02-11T01:41:57;102397.09;;;5.71;72.07
72892;BME280;61032;50.782;6.818;2023-02-11T01:42:57;102400.66;;;5.72;71.81
72892;BME280;61032;50.782;6.818;2023-02-11T01:43:58;102395.69;;;5.69;71.83
72892;BME280;61032;50.782;6.818;2023-02-11T01:44:59;102396.78;;;5.68;72.03
72892;BME280;61032;50.782;6.818;2023-02-11T01:46:16;102403.31;;;5.67;72.10
72892;BME280;61032;50.782;6.818;2023-02-11T01:47:20;102397.47;;;5.58;71.54
72892;BME280;61032;50.782;6.818;2023-02-11T01:48:24;102400.13;;;5.53;72.82
72892;BME280;61032;50.782;6.818;2023-02-11T01:49:28;102394.66;;;5.53;72.30
72892;BME280;61032;50.782;6.818;2023-02-11T01:50:30;102399.28;;;5.52;72.58
72892;BME280;61032;50.782;6.818;2023-02-11T01:51:34;102398.03;;;5.43;72.91
72892;BME280;61032;50.782;6.818;2023-02-11T01:52:38;102400.75;;;5.43;72.77
72892;BME280;61032;50.782;6.818;2023-02-11T01:53:40;102401.84;;;5.42;73.79
72892;BME280;61032;50.782;6.818;2023-02-11T01:55:08;102404.66;;;5.47;72.47
72892;BME280;61032;50.782;6.818;2023-02-11T01:56:29;102409.19;;;5.42;72.46
72892;BME280;61032;50.782;6.818;2023-02-11T01:57:50;102410.25;;;5.41;73.41
72892;BME280;61032;50.782;6.818;2023-02-11T01:58:54;102417.38;;;5.42;72.82
72892;BME280;61032;50.782;6.818;2023-02-11T02:01:18;102421.19;;;5.41;73.12
72892;BME280;61032;50.782;6.818;2023-02-11T02:03:56;102418.88;;;5.49;72.57
72892;BME280;61032;50.782;6.818;2023-02-11T02:05:04;102418.97;;;5.55;73.17
72892;BME280;61032;50.782;6.818;2023-02-11T02:06:11;102411.94;;;5.59;73.22
72892;BME280;61032;50.782;6.818;2023-02-11T02:07:21;102413.00;;;5.58;72.47
72892;BME280;61032;50.782;6.818;2023-02-11T02:08:28;102411.94;;;5.59;72.99
72892;BME280;61032;50.782;6.818;2023-02-11T02:09:36;102412.53;;;5.61;72.75
72892;BME280;61032;50.782;6.818;2023-02-11T02:10:42;102422.31;;;5.62;73.19
72892;BME280;61032;50.782;6.818;2023-02-11T02:11:43;102420.50;;;5.67;72.63
72892;BME280;61032;50.782;6.818;2023-02-11T02:12:44;102426.47;;;5.64;72.21
72892;BME280;61032;50.782;6.818;2023-02-11T02:13:44;102428.94;;;5.66;72.91
72892;BME280;61032;50.782;6.818;2023-02-11T02:14:45;102429.53;;;5.68;72.95
72892;BME280;61032;50.782;6.818;2023-02-11T02:15:49;102431.16;;;5.69;71.97
72892;BME280;61032;50.782;6.818;2023-02-11T02:16:51;102427.69;;;5.73;71.97
72892;BME280;61032;50.782;6.818;2023-02-11T02:22:32;102420.41;;;5.62;72.70
72892;BME280;61032;50.782;6.818;2023-02-11T02:31:25;102404.97;;;5.68;72.75
72892;BME280;61032;50.782;6.818;2023-02-11T02:35:11;102404.06;;;5.79;72.45
72892;BME280;61032;50.782;6.818;2023-02-11T02:36:36;102417.16;;;5.82;72.57
72892;BME280;61032;50.782;6.818;2023-02-11T02:37:49;102411.22;;;5.85;72.24
72892;BME280;61032;50.782;6.818;2023-02-11T02:38:57;102405.50;;;5.86;72.22
72892;BME280;61032;50.782;6.818;2023-02-11T02:40:01;102398.16;;;5.87;72.47
72892;BME280;61032;50.782;6.818;2023-02-11T02:41:10;102410.72;;;5.88;71.53
72892;BME280;61032;50.782;6.818;2023-02-11T02:42:12;102399.59;;;5.90;71.52
72892;BME280;61032;50.782;6.818;2023-02-11T02:43:14;102402.31;;;5.90;71.58
72892;BME280;61032;50.782;6.818;2023-02-11T02:44:17;102405.75;;;5.85;71.21
72892;BME280;61032;50.782;6.818;2023-02-11T02:45:18;102404.09;;;5.84;71.60
72892;BME280;61032;50.782;6.818;2023-02-11T02:46:28;102413.13;;;5.84;71.87
72892;BME280;61032;50.782;6.818;2023-02-11T02:47:28;102408.19;;;5.81;72.24
72892;BME280;61032;50.782;6.818;2023-02-11T02:48:31;102400.75;;;5.77;71.95
72892;BME280;61032;50.782;6.818;2023-02-11T02:49:32;102401.31;;;5.79;72.00
72892;BME280;61032;50.782;6.818;2023-02-11T02:50:36;102395.63;;;5.80;71.95
72892;BME280;61032;50.782;6.818;2023-02-11T02:53:20;102390.75;;;6.04;74.16
72892;BME280;61032;50.782;6.818;2023-02-11T02:58:34;102383.63;;;6.47;72.80
72892;BME280;61032;50.782;6.818;2023-02-11T03:02:28;102386.84;;;6.39;73.54
72892;BME280;61032;50.782;6.818;2023-02-11T03:05:21;102388.25;;;6.41;73.27
72892;BME280;61032;50.782;6.818;2023-02-11T03:06:47;102393.44;;;6.43;73.14
72892;BME280;61032;50.782;6.818;2023-02-11T03:07:56;102382.56;;;6.48;73.08
72892;BME280;61032;50.782;6.818;2023-02-11T03:10:27;102368.59;;;6.44;72.85
72892;BME280;61032;50.782;6.818;2023-02-11T03:11:29;102364.00;;;6.50;73.04
72892;BME280;61032;50.782;6.818;2023-02-11T03:12:30;102364.22;;;6.43;73.13
72892;BME280;61032;50.782;6.818;2023-02-11T03:13:34;102356.88;;;6.49;72.83
72892;BME280;61032;50.782;6.818;2023-02-11T03:14:37;102354.47;;;6.52;72.65
72892;BME280;61032;50.782;6.818;2023-02-11T03:15:43;102356.97;;;6.54;72.10
72892;BME280;61032;50.782;6.818;2023-02-11T03:16:44;102356.13;;;6.53;72.29
72892;BME280;61032;50.782;6.818;2023-02-11T03:17:48;102363.81;;;6.57;73.05
72892;BME280;61032;50.782;6.818;2023-02-11T03:19:02;102358.91;;;6.59;72.35
72892;BME280;61032;50.782;6.818;2023-02-11T03:20:05;102351.41;;;6.44;72.89
72892;BME280;61032;50.782;6.818;2023-02-11T03:21:10;102353.59;;;6.47;72.72
72892;BME280;61032;50.782;6.818;2023-02-11T03:22:16;102349.53;;;6.23;73.43
72892;BME280;61032;50.782;6.818;2023-02-11T03:23:27;102355.41;;;6.14;74.65
72892;BME280;61032;50.782;6.818;2023-02-11T03:24:34;102357.63;;;6.17;73.61
72892;BME280;61032;50.782;6.818;2023-02-11T03:25:41;102360.47;;;6.28;74.39
72892;BME280;61032;50.782;6.818;2023-02-11T03:26:51;102360.78;;;6.31;74.00
72892;BME280;61032;50.782;6.818;2023-02-11T03:28:02;102361.56;;;6.27;73.33
72892;BME280;61032;50.782;6.818;2023-02-11T03:29:14;102354.81;;;6.34;73.43
72892;BME280;61032;50.782;6.818;2023-02-11T03:30:38;102350.84;;;6.20;73.88
72892;BME280;61032;50.782;6.818;2023-02-11T03:32:07;102355.81;;;6.23;73.92
72892;BME280;61032;50.782;6.818;2023-02-11T03:33:21;102360.78;;;6.31;73.45
72892;BME280;61032;50.782;6.818;2023-02-11T03:34:32;102366.25;;;6.31;73.62
72892;BME280;61032;50.782;6.818;2023-02-11T03:35:49;102366.25;;;6.31;73.41
72892;BME280;61032;50.782;6.818;2023-02-11T03:37:42;102363.78;;;6.30;72.79
72892;BME280;61032;50.782;6.818;2023-02-11T03:38:20;102358.72;;;6.16;73.16
72892;BME280;61032;50.782;6.818;2023-02-11T03:39:29;102359.03;;;6.20;73.89
72892;BME280;61032;50.782;6.818;2023-02-11T03:40:35;102359.28;;;6.18;73.69
72892;BME280;61032;50.782;6.818;2023-02-11T03:41:38;102359.78;;;6.15;72.91
72892;BME280;61032;50.782;6.818;2023-02-11T03:42:51;102363.69;;;6.19;73.41
72892;BME280;61032;50.782;6.818;2023-02-11T03:43:55;102357.00;;;6.10;73.60
72892;BME280;61032;50.782;6.818;2023-02-11T03:45:02;102364.50;;;6.20;73.34
72892;BME280;61032;50.782;6.818;2023-02-11T03:46:04;102352.28;;;6.06;73.21
72892;BME280;61032;50.782;6.818;2023-02-11T03:47:07;102357.19;;;6.04;73.41
72892;BME280;61032;50.782;6.818;2023-02-11T03:48:15;102349.31;;;6.07;73.73
72892;BME280;61032;50.782;6.818;2023-02-11T03:49:19;102347.97;;;6.10;73.29
72892;BME280;61032;50.782;6.818;2023-02-11T03:50:21;102362.47;;;6.10;73.57
72892;BME280;61032;50.782;6.818;2023-02-11T03:51:23;102357.81;;;6.11;73.63
72892;BME280;61032;50.782;6.818;2023-02-11T03:52:26;102354.25;;;6.10;73.02
72892;BME280;61032;50.782;6.818;2023-02-11T03:53:26;102353.19;;;6.11;73.57
72892;BME280;61032;50.782;6.818;2023-02-11T03:54:29;102350.47;;;6.11;73.84
72892;BME280;61032;50.782;6.818;2023-02-11T03:55:32;102350.22;;;6.13;73.31
72892;BME280;61032;50.782;6.818;2023-02-11T03:56:39;102351.03;;;6.13;73.61
72892;BME280;61032;50.782;6.818;2023-02-11T03:57:41;102343.09;;;6.12;73.21
72892;BME280;61032;50.782;6.818;2023-02-11T03:58:43;102345.00;;;6.11;73.36
72892;BME280;61032;50.782;6.818;2023-02-11T03:59:56;102343.66;;;6.14;72.94
72892;BME280;61032;50.782;6.818;2023-02-11T04:00:57;102350.47;;;6.11;72.97
72892;BME280;61032;50.782;6.818;2023-02-11T04:01:57;102343.84;;;6.07;72.93
72892;BME280;61032;50.782;6.818;2023-02-11T04:02:58;102344.34;;;6.04;72.86
72892;BME280;61032;50.782;6.818;2023-02-11T04:03:58;102343.81;;;6.02;73.39
72892;BME280;61032;50.782;6.818;2023-02-11T04:04:59;102342.16;;;6.01;73.81
72892;BME280;61032;50.782;6.818;2023-02-11T04:06:00;102343.25;;;6.00;73.28
72892;BME280;61032;50.782;6.818;2023-02-11T04:07:00;102349.28;;;6.02;73.08
72892;BME280;61032;50.782;6.818;2023-02-11T04:08:00;102341.88;;;6.03;73.71
72892;BME280;61032;50.782;6.818;2023-02-11T04:09:01;102352.50;;;5.99;73.65
72892;BME280;61032;50.782;6.818;2023-02-11T04:10:01;102343.25;;;6.00;73.64
72892;BME280;61032;50.782;6.818;2023-02-11T04:11:02;102349.78;;;5.99;73.78
72892;BME280;61032;50.782;6.818;2023-02-11T04:12:02;102350.06;;;6.03;73.46
72892;BME280;61032;50.782;6.818;2023-02-11T04:13:03;102350.13;;;6.08;73.38
72892;BME280;61032;50.782;6.818;2023-02-11T04:14:03;102345.81;;;6.12;73.67
72892;BME280;61032;50.782;6.818;2023-02-11T04:15:04;102349.38;;;6.12;72.98
72892;BME280;61032;50.782;6.818;2023-02-11T04:16:05;102344.41;;;6.09;72.71
72892;BME280;61032;50.782;6.818;2023-02-11T04:17:05;102340.69;;;6.15;73.46
72892;BME280;61032;50.782;6.818;2023-02-11T04:18:05;102345.63;;;6.18;72.99
72892;BME280;61032;50.782;6.818;2023-02-11T04:19:06;102354.41;;;6.20;72.83
72892;BME280;61032;50.782;6.818;2023-02-11T04:20:07;102353.25;;;6.16;72.67
72892;BME280;61032;50.782;6.818;2023-02-11T04:21:08;102355.16;;;6.16;72.78
72892;BME280;61032;50.782;6.818;2023-02-11T04:22:08;102354.34;;;6.15;72.74
72892;BME280;61032;50.782;6.818;2023-02-11T04:23:09;102361.13;;;6.13;72.44
72892;BME280;61032;50.782;6.818;2023-02-11T04:24:09;102356.25;;;6.15;72.81
72892;BME280;61032;50.782;6.818;2023-02-11T04:25:10;102350.53;;;6.16;72.62
72892;BME280;61032;50.782;6.818;2023-02-11T04:26:10;102354.00;;;6.12;72.42
72892;BME280;61032;50.782;6.818;2023-02-11T04:27:10;102360.03;;;6.14;72.09
72892;BME280;61032;50.782;6.818;2023-02-11T04:28:11;102356.56;;;6.18;72.81
72892;BME280;61032;50.782;6.818;2023-02-11T04:29:11;102352.09;;;6.12;72.20
72892;BME280;61032;50.782;6.818;2023-02-11T04:30:12;102352.09;;;6.12;72.90
72892;BME280;61032;50.782;6.818;2023-02-11T04:31:12;102353.19;;;6.11;72.59
72892;BME280;61032;50.782;6.818;2023-02-11T04:32:12;102352.63;;;6.09;72.55
72892;BME280;61032;50.782;6.818;2023-02-11T04:33:13;102352.09;;;6.12;73.34
72892;BME280;61032;50.782;6.818;2023-02-11T04:34:13;102346.47;;;6.19;73.25
72892;BME280;61032;50.782;6.818;2023-02-11T04:35:13;102349.19;;;6.19;72.41
72892;BME280;61032;50.782;6.818;2023-02-11T04:36:14;102343.16;;;6.17;72.49
72892;BME280;61032;50.782;6.818;2023-02-11T04:37:14;102340.09;;;6.13;72.53
72892;BME280;61032;50.782;6.818;2023-02-11T04:38:15;102343.41;;;6.15;73.03
72892;BME280;61032;50.782;6.818;2023-02-11T04:39:15;102345.06;;;6.16;73.25
72892;BME280;61032;50.782;6.818;2023-02-11T04:40:16;102340.19;;;6.18;72.82
72892;BME280;61032;50.782;6.818;2023-02-11T04:41:16;102341.84;;;6.19;72.21
72892;BME280;61032;50.782;6.818;2023-02-11T04:42:16;102341.50;;;6.16;72.64
72892;BME280;61032;50.782;6.818;2023-02-11T04:43:17;102333.06;;;6.17;72.95
72892;BME280;61032;50.782;6.818;2023-02-11T04:44:17;102340.75;;;6.20;72.43
72892;BME280;61032;50.782;6.818;2023-02-11T04:45:17;102338.84;;;6.21;72.56
72892;BME280;61032;50.782;6.818;2023-02-11T04:46:18;102332.03;;;6.24;72.72
72892;BME280;61032;50.782;6.818;2023-02-11T04:47:18;102336.97;;;6.27;72.89
72892;BME280;61032;50.782;6.818;2023-02-11T04:48:18;102338.38;;;6.29;72.62
72892;BME280;61032;50.782;6.818;2023-02-11T04:49:19;102333.47;;;6.31;72.33
72892;BME280;61032;50.782;6.818;2023-02-11T04:50:19;102330.50;;;6.33;72.63
72892;BME280;61032;50.782;6.818;2023-02-11T04:51:19;102329.59;;;6.27;72.48
72892;BME280;61032;50.782;6.818;2023-02-11T04:52:20;102329.34;;;6.29;72.33
72892;BME280;61032;50.782;6.818;2023-02-11T04:53:20;102329.34;;;6.29;72.04
72892;BME280;61032;50.782;6.818;2023-02-11T04:54:20;102321.09;;;6.24;72.25
72892;BME280;61032;50.782;6.818;2023-02-11T04:55:21;102330.41;;;6.23;72.85
72892;BME280;61032;50.782;6.818;2023-02-11T04:56:21;102333.47;;;6.31;72.56
72892;BME280;61032;50.782;6.818;2023-02-11T04:57:22;102329.72;;;6.37;72.18
72892;BME280;61032;50.782;6.818;2023-02-11T04:58:22;102325.94;;;6.38;71.78
72892;BME280;61032;50.782;6.818;2023-02-11T04:59:23;102318.03;;;6.42;72.41
72892;BME280;61032;50.782;6.818;2023-02-11T05:00:23;102315.81;;;6.39;72.17
72892;BME280;61032;50.782;6.818;2023-02-11T05:01:24;102311.44;;;6.38;71.46
72892;BME280;61032;50.782;6.818;2023-02-11T05:02:24;102310.41;;;6.44;71.66
72892;BME280;61032;50.782;6.818;2023-02-11T05:03:24;102311.59;;;6.53;71.06
72892;BME280;61032;50.782;6.818;2023-02-11T05:04:25;102306.31;;;6.46;70.93
72892;BME280;61032;50.782;6.818;2023-02-11T05:05:25;102297.31;;;6.46;71.70
72892;BME280;61032;50.782;6.818;2023-02-11T05:06:25;102304.13;;;6.43;71.61
72892;BME280;61032;50.782;6.818;2023-02-11T05:07:26;102302.75;;;6.46;71.80
72892;BME280;61032;50.782;6.818;2023-02-11T05:08:26;102297.63;;;6.49;72.31
72892;BME280;61032;50.782;6.818;2023-02-11T05:09:27;102311.84;;;6.51;71.39
72892;BME280;61032;50.782;6.818;2023-02-11T05:10:27;102309.38;;;6.50;71.47
72892;BME280;61032;50.782;6.818;2023-02-11T05:11:28;102312.09;;;6.50;71.59
72892;BME280;61032;50.782;6.818;2023-02-11T05:12:28;102308.81;;;6.48;71.58
72892;BME280;61032;50.782;6.818;2023-02-11T05:13:28;102312.59;;;6.47;71.43
72892;BME280;61032;50.782;6.818;2023-02-11T05:14:29;102313.16;;;6.44;71.60
72892;BME280;61032;50.782;6.818;2023-02-11T05:15:29;102324.63;;;6.46;71.53
72892;BME280;61032;50.782;6.818;2023-02-11T05:16:30;102319.97;;;6.46;72.11
72892;BME280;61032;50.782;6.818;2023-02-11T05:17:30;102318.06;;;6.47;72.12
72892;BME280;61032;50.782;6.818;2023-02-11T05:18:30;102315.34;;;6.47;71.64
72892;BME280;61032;50.782;6.818;2023-02-11T05:19:31;102313.94;;;6.44;71.61
72892;BME280;61032;50.782;6.818;2023-02-11T05:20:31;102318.34;;;6.45;71.69
72892;BME280;61032;50.782;6.818;2023-02-11T05:21:32;102319.97;;;6.46;71.55
72892;BME280;61032;50.782;6.818;2023-02-11T05:22:32;102317.00;;;6.48;72.14
72892;BME280;61032;50.782;6.818;2023-02-11T05:23:32;102320.81;;;6.47;71.92
72892;BME280;61032;50.782;6.818;2023-02-11T05:24:33;102317.81;;;6.48;72.00
72892;BME280;61032;50.782;6.818;2023-02-11T05:25:33;102317.00;;;6.48;71.41
72892;BME280;61032;50.782;6.818;2023-02-11T05:26:34;102315.59;;;6.45;71.32
72892;BME280;61032;50.782;6.818;2023-02-11T05:27:35;102322.69;;;6.41;71.77
72892;BME280;61032;50.782;6.818;2023-02-11T05:28:35;102319.13;;;6.41;71.66
72892;BME280;61032;50.782;6.818;2023-02-11T05:29:36;102322.38;;;6.38;70.92
72892;BME280;61032;50.782;6.818;2023-02-11T05:30:36;102328.84;;;6.32;72.21
72892;BME280;61032;50.782;6.818;2023-02-11T05:31:36;102329.72;;;6.37;72.04
72892;BME280;61032;50.782;6.818;2023-02-11T05:32:37;102319.69;;;6.43;71.34
72892;BME280;61032;50.782;6.818;2023-02-11T05:33:37;102326.81;;;6.44;71.38
72892;BME280;61032;50.782;6.818;2023-02-11T05:34:38;102321.34;;;6.44;71.51
72892;BME280;61032;50.782;6.818;2023-02-11T05:35:38;102321.84;;;6.41;71.50
72892;BME280;61032;50.782;6.818;2023-02-11T05:36:38;102317.22;;;6.41;72.00
72892;BME280;61032;50.782;6.818;2023-02-11T05:37:38;102318.03;;;6.42;71.14
72892;BME280;61032;50.782;6.818;2023-02-11T05:38:39;102318.31;;;6.40;70.92
72892;BME280;61032;50.782;6.818;2023-02-11T05:39:41;102315.00;;;6.38;71.21
72892;BME280;61032;50.782;6.818;2023-02-11T05:40:41;102316.91;;;6.38;71.31
72892;BME280;61032;50.782;6.818;2023-02-11T05:41:42;102317.25;;;6.46;72.17
72892;BME280;61032;50.782;6.818;2023-02-11T05:42:42;102317.50;;;6.45;70.79
72892;BME280;61032;50.782;6.818;2023-02-11T05:43:42;102315.06;;;6.43;71.24
72892;BME280;61032;50.782;6.818;2023-02-11T05:44:43;102313.91;;;6.39;71.68
72892;BME280;61032;50.782;6.818;2023-02-11T05:45:43;102307.13;;;6.42;71.64
72892;BME280;61032;50.782;6.818;2023-02-11T05:46:43;102305.97;;;6.38;71.22
72892;BME280;61032;50.782;6.818;2023-02-11T05:47:44;102312.84;;;6.40;71.90
72892;BME280;61032;50.782;6.818;2023-02-11T05:48:44;102308.22;;;6.46;71.26
72892;BME280;61032;50.782;6.818;2023-02-11T05:49:44;102304.16;;;6.48;71.99
72892;BME280;61032;50.782;6.818;2023-02-11T05:50:45;102303.91;;;6.50;70.62
72892;BME280;61032;50.782;6.818;2023-02-11T05:51:45;102303.41;;;6.53;70.87
72892;BME280;61032;50.782;6.818;2023-02-11T05:52:46;102307.53;;;6.55;70.94
72892;BME280;61032;50.782;6.818;2023-02-11T05:53:46;102296.34;;;6.57;70.22
72892;BME280;61032;50.782;6.818;2023-02-11T05:54:46;102298.88;;;6.64;70.66
72892;BME280;61032;50.782;6.818;2023-02-11T05:55:47;102301.31;;;6.65;70.06
72892;BME280;61032;50.782;6.818;2023-02-11T05:56:47;102295.84;;;6.65;70.67
72892;BME280;61032;50.782;6.818;2023-02-11T05:57:47;102299.69;;;6.64;70.92
72892;BME280;61032;50.782;6.818;2023-02-11T05:58:48;102296.38;;;6.62;70.52
72892;BME280;61032;50.782;6.818;2023-02-11T05:59:48;102302.41;;;6.64;70.78
72892;BME280;61032;50.782;6.818;2023-02-11T06:00:48;102299.97;;;6.68;70.86